Time;durP1;ratioP1;P1;durP2;ratioP2;P2;SDS_P1;SDS_P2;PMS_P1;PMS_P2;Temp;Humidity;BMP_temperature;BMP_pressure;BME280_temperature;BME280_humidity;BME280_pressure;Samples;Min_cycle;Max_cycle;Signal;HPM_P1;HPM_P2
2022/02/18 00:02:24;;;;;;;0.00;0.00;;;;;;;10.50;58.22;101133.69;5055286;28;20043;-76
2022/02/18 00:04:50;;;;;;;0.00;0.00;;;;;;;10.53;57.63;101127.47;5055710;28;20064;-76
2022/02/18 00:07:16;;;;;;;0.00;0.00;;;;;;;10.48;58.42;101118.69;5055801;28;20460;-76
2022/02/18 00:09:42;;;;;;;0.10;0.10;;;;;;;10.47;58.39;101115.19;5055585;28;20029;-76
2022/02/18 00:12:10;;;;;;;0.20;0.20;;;;;;;10.48;57.84;101119.59;5055391;28;20400;-76
2022/02/18 00:14:36;;;;;;;0.30;0.30;;;;;;;10.46;58.51;101117.84;5055324;28;20025;-75
2022/02/18 00:17:04;;;;;;;0.10;0.10;;;;;;;10.38;59.80;101107.38;5038432;28;20178;-76
2022/02/18 00:19:32;;;;;;;0.10;0.10;;;;;;;10.34;59.93;101095.91;5037306;28;20120;-76
2022/02/18 00:21:58;;;;;;;0.10;0.10;;;;;;;10.40;58.60;101094.09;5055121;28;20025;-76
2022/02/18 00:24:25;;;;;;;2.05;1.95;;;;;;;10.39;58.79;101093.22;5055168;28;20053;-75
2022/02/18 00:26:51;;;;;;;0.00;0.00;;;;;;;10.31;59.09;101089.78;5055023;28;20155;-75
2022/02/18 00:29:18;;;;;;;0.00;0.00;;;;;;;10.26;60.12;101089.00;5055386;28;20154;-76
2022/02/18 00:31:44;;;;;;;0.10;0.10;;;;;;;10.26;60.10;101075.75;5055426;28;20025;-76
2022/02/18 00:34:10;;;;;;;2.90;2.45;;;;;;;10.31;60.00;101081.84;5055617;28;20253;-76
2022/02/18 00:36:38;;;;;;;0.10;0.10;;;;;;;10.32;59.80;101080.94;5055352;28;20036;-76
2022/02/18 00:39:04;;;;;;;0.10;0.10;;;;;;;10.38;59.67;101085.28;5054882;28;20493;-76
2022/02/18 00:41:30;;;;;;;1.75;1.65;;;;;;;10.32;60.22;101076.50;5054702;28;20380;-76
2022/02/18 00:43:56;;;;;;;0.03;0.03;;;;;;;10.44;60.21;101074.59;5055382;28;20086;-76
2022/02/18 00:46:23;;;;;;;0.00;0.00;;;;;;;10.51;59.73;101082.44;5055003;28;20037;-76
2022/02/18 00:48:49;;;;;;;0.00;0.00;;;;;;;10.42;60.32;101073.75;5036553;28;20037;-76
2022/02/18 00:51:15;;;;;;;0.10;0.10;;;;;;;10.49;59.94;101080.69;5053849;28;20029;-76
2022/02/18 00:53:42;;;;;;;0.10;0.10;;;;;;;10.49;59.78;101080.69;5054832;28;20024;-76
2022/02/18 00:56:08;;;;;;;0.10;0.10;;;;;;;10.52;59.61;101083.31;5055269;28;20039;-75
2022/02/18 00:58:35;;;;;;;0.10;0.10;;;;;;;10.54;59.36;101078.84;5054503;28;20024;-76
2022/02/18 01:01:01;;;;;;;0.08;0.08;;;;;;;10.55;59.30;101087.69;5054138;28;20032;-76
2022/02/18 01:03:27;;;;;;;0.10;0.10;;;;;;;10.50;59.45;101070.09;5054797;28;20064;-76
2022/02/18 01:05:54;;;;;;;0.10;0.10;;;;;;;10.55;59.31;101062.06;5054597;28;20121;-77
2022/02/18 01:08:20;;;;;;;0.10;0.10;;;;;;;10.55;59.70;101064.72;5054605;28;20108;-76
2022/02/18 01:13:21;;;;;;;0.10;0.10;;;;;;;10.55;59.58;101056.75;5033991;28;20053;-84
2022/02/18 01:15:47;;;;;;;0.75;0.75;;;;;;;10.47;59.81;101056.03;5035496;28;20037;-80
2022/02/18 01:18:14;;;;;;;0.08;0.08;;;;;;;10.47;60.14;101048.94;5034860;28;20030;-81
2022/02/18 01:20:40;;;;;;;0.10;0.10;;;;;;;10.46;60.33;101048.97;5035379;28;20112;-82
2022/02/18 01:23:07;;;;;;;0.00;0.00;;;;;;;10.53;59.88;101050.63;5035556;28;20076;-80
2022/02/18 01:25:33;;;;;;;0.10;0.10;;;;;;;10.55;59.90;101046.16;5035778;28;20125;-82
2022/02/18 01:28:00;;;;;;;1.05;1.05;;;;;;;10.61;60.34;101038.13;5035063;28;20037;-82
2022/02/18 01:30:28;;;;;;;0.10;0.10;;;;;;;10.60;60.10;101033.72;5035891;28;20038;-84
2022/02/18 01:32:54;;;;;;;0.10;0.10;;;;;;;10.62;60.16;101029.28;5034374;28;20025;-81
2022/02/18 01:35:21;;;;;;;0.10;0.10;;;;;;;10.65;59.76;101031.88;5034472;28;20041;-82
2022/02/18 01:37:49;;;;;;;0.00;0.00;;;;;;;10.64;60.38;101026.59;5034668;28;20112;-83
2022/02/18 01:40:15;;;;;;;0.10;0.10;;;;;;;10.65;59.99;101017.75;5034222;28;20128;-84
2022/02/18 01:42:44;;;;;;;0.10;0.10;;;;;;;10.64;60.04;101014.22;5034344;28;20422;-81
2022/02/18 01:45:11;;;;;;;0.20;0.20;;;;;;;10.69;60.08;101016.78;5035994;28;20025;-80
2022/02/18 01:47:37;;;;;;;0.57;0.57;;;;;;;10.69;60.11;101008.81;5019096;28;20041;-83
2022/02/18 01:50:06;;;;;;;0.30;0.30;;;;;;;10.65;60.40;101000.09;5035764;28;20042;-83
2022/02/18 01:52:36;;;;;;;0.08;0.08;;;;;;;10.73;59.77;100996.41;5017865;28;20065;-83
2022/02/18 01:55:10;;;;;;;0.10;0.10;;;;;;;10.71;60.01;100984.97;5035992;28;20029;-82
2022/02/18 01:57:58;;;;;;;0.08;0.08;;;;;;;10.71;60.21;100974.38;5035447;28;20037;-83
2022/02/18 02:00:29;;;;;;;0.08;0.08;;;;;;;10.73;60.24;100969.91;5034524;28;20472;-83
2022/02/18 02:02:56;;;;;;;0.10;0.10;;;;;;;10.72;60.05;100957.56;5015795;28;20034;-81
2022/02/18 02:05:23;;;;;;;0.00;0.00;;;;;;;10.77;59.54;100945.09;5035052;28;20029;-82
2022/02/18 02:07:50;;;;;;;0.10;0.10;;;;;;;10.67;59.93;100947.06;5034044;28;20029;-83
2022/02/18 02:10:17;;;;;;;0.13;0.13;;;;;;;10.71;59.90;100931.97;5033672;28;20099;-83
2022/02/18 02:15:27;;;;;;;0.10;0.10;;;;;;;10.73;59.86;100923.09;5091671;27;20443;-82
2022/02/18 02:17:58;;;;;;;0.10;0.10;;;;;;;10.66;60.00;100917.00;5070784;28;20039;-83
2022/02/18 02:20:24;;;;;;;0.10;0.10;;;;;;;10.72;59.71;100921.34;5071569;28;20027;-83
2022/02/18 02:22:51;;;;;;;0.10;0.10;;;;;;;10.61;60.42;100908.28;5053987;28;20033;-84
2022/02/18 02:25:17;;;;;;;0.10;0.10;;;;;;;10.61;60.03;100902.97;5051309;28;20022;-84
2022/02/18 02:27:43;;;;;;;0.10;0.10;;;;;;;10.66;59.98;100897.59;5050469;28;20475;-82
2022/02/18 02:30:13;;;;;;;0.77;0.77;;;;;;;10.62;60.50;100891.47;5051220;28;20083;-82
2022/02/18 02:32:41;;;;;;;0.00;0.00;;;;;;;10.64;60.05;100887.03;5050854;28;20029;-82
2022/02/18 02:35:08;;;;;;;0.10;0.10;;;;;;;10.50;60.78;100884.66;5051109;28;20029;-81
2022/02/18 02:37:34;;;;;;;0.10;0.10;;;;;;;10.54;60.65;100864.25;5049758;28;20156;-82
2022/02/18 02:40:00;;;;;;;0.00;0.00;;;;;;;10.55;60.51;100860.72;5051417;28;20029;-82
2022/02/18 02:42:26;;;;;;;0.10;0.10;;;;;;;10.51;61.28;100853.72;5051374;28;20033;-82
2022/02/18 02:44:52;;;;;;;0.28;0.28;;;;;;;10.47;61.35;100837.03;5051195;28;20110;-81
2022/02/18 02:47:19;;;;;;;0.10;0.10;;;;;;;10.48;61.38;100837.88;5050733;28;20038;-80
2022/02/18 02:49:45;;;;;;;0.10;0.10;;;;;;;10.52;61.15;100842.25;5050994;28;20033;-81
2022/02/18 02:52:11;;;;;;;0.30;0.30;;;;;;;10.52;61.53;100845.75;5050887;28;20079;-81
2022/02/18 02:54:38;;;;;;;0.10;0.10;;;;;;;10.50;61.46;100844.94;5051021;28;20045;-81
2022/02/18 02:57:04;;;;;;;0.00;0.00;;;;;;;10.42;61.63;100841.53;5050805;28;20025;-81
2022/02/18 02:59:32;;;;;;;0.10;0.10;;;;;;;10.46;62.19;100835.28;5050726;28;20025;-81
2022/02/18 03:01:58;;;;;;;0.08;0.08;;;;;;;10.49;62.00;100829.03;5050349;28;20036;-81
2022/02/18 03:04:24;;;;;;;0.10;0.10;;;;;;;10.55;62.30;100817.47;5050607;28;20030;-81
2022/02/18 03:06:50;;;;;;;0.50;0.50;;;;;;;10.55;62.22;100806.88;5050451;28;20349;-81
2022/02/18 03:09:17;;;;;;;0.10;0.10;;;;;;;10.55;62.57;100802.44;5050292;28;20025;-81
2022/02/18 03:11:43;;;;;;;0.00;0.00;;;;;;;10.61;62.20;100789.06;5050205;28;20025;-80
2022/02/18 03:14:09;;;;;;;0.10;0.10;;;;;;;10.59;62.01;100785.59;5049902;28;20140;-81
2022/02/18 03:16:35;;;;;;;0.22;0.22;;;;;;;10.59;62.42;100780.28;5050522;28;20108;-81
2022/02/18 03:19:02;;;;;;;0.10;0.10;;;;;;;10.53;63.30;100772.47;5049979;28;20037;-81
2022/02/18 03:21:28;;;;;;;0.10;0.10;;;;;;;10.49;63.80;100762.81;5050041;28;20018;-79
2022/02/18 03:23:54;;;;;;;0.10;0.10;;;;;;;10.53;63.29;100759.22;5049876;28;20037;-81
2022/02/18 03:26:21;;;;;;;0.10;0.10;;;;;;;10.50;63.60;100756.63;5038960;28;20033;-81
2022/02/18 03:28:47;;;;;;;0.00;0.00;;;;;;;10.44;64.31;100762.03;5036705;28;20060;-78
2022/02/18 03:31:14;;;;;;;0.10;0.10;;;;;;;10.50;64.25;100756.63;5036845;28;20025;-81
2022/02/18 03:33:41;;;;;;;0.08;0.08;;;;;;;10.60;63.76;100738.75;5036676;28;20388;-81
2022/02/18 03:36:08;;;;;;;0.00;0.00;;;;;;;10.59;63.81;100735.25;5036865;28;20025;-81
2022/02/18 03:38:35;;;;;;;7.43;1.55;;;;;;;10.63;64.00;100720.13;5036736;28;20025;-82
2022/02/18 03:41:02;;;;;;;0.10;0.10;;;;;;;10.60;64.47;100699.88;5036737;28;20464;-81
2022/02/18 03:43:29;;;;;;;0.00;0.00;;;;;;;10.65;64.04;100676.81;5036773;28;20076;-81
2022/02/18 03:45:55;;;;;;;0.10;0.10;;;;;;;10.67;63.95;100664.38;5036736;28;20045;-79
2022/02/18 03:48:21;;;;;;;0.43;0.43;;;;;;;10.66;64.04;100659.13;5036414;28;20033;-78
2022/02/18 03:50:47;;;;;;;0.10;0.10;;;;;;;10.64;64.13;100648.56;5036159;28;20116;-80
2022/02/18 03:53:14;;;;;;;3.00;1.05;;;;;;;10.60;64.48;100620.38;5036273;28;20044;-81
2022/02/18 03:55:41;;;;;;;0.10;0.10;;;;;;;10.58;64.67;100608.97;5036177;28;20099;-81
2022/02/18 03:58:07;;;;;;;0.03;0.03;;;;;;;10.53;65.01;100597.63;5036428;28;20029;-80
2022/02/18 04:00:33;;;;;;;0.10;0.10;;;;;;;10.59;65.09;100589.53;5036370;28;20240;-81
2022/02/18 04:03:00;;;;;;;0.03;0.03;;;;;;;10.62;64.85;100581.50;5035869;28;20073;-81
2022/02/18 04:05:26;;;;;;;0.85;0.85;;;;;;;10.63;64.84;100585.88;5036378;28;20465;-82
2022/02/18 04:07:53;;;;;;;0.10;0.10;;;;;;;10.62;65.19;100580.63;5035858;28;20395;-82
2022/02/18 04:10:19;;;;;;;0.10;0.10;;;;;;;10.62;64.77;100570.03;5035988;28;20030;-81
2022/02/18 04:12:45;;;;;;;0.05;0.05;;;;;;;10.63;64.88;100551.44;5035537;22;20408;-75
2022/02/18 04:15:12;;;;;;;0.10;0.10;;;;;;;10.64;64.94;100554.94;5015243;28;20125;-75
2022/02/18 04:17:38;;;;;;;0.10;0.10;;;;;;;10.66;64.39;100567.25;5014854;28;20042;-75
2022/02/18 04:20:04;;;;;;;0.10;0.10;;;;;;;10.59;65.26;100560.38;5015198;28;20480;-75
2022/02/18 04:22:31;;;;;;;0.00;0.00;;;;;;;10.50;65.85;100569.44;5015206;28;20488;-75
2022/02/18 04:24:57;;;;;;;0.00;0.00;;;;;;;10.54;65.47;100559.59;5015421;28;20034;-75
2022/02/18 04:27:23;;;;;;;0.10;0.10;;;;;;;10.53;65.46;100560.53;5015260;28;20113;-75
2022/02/18 04:29:49;;;;;;;1.58;1.45;;;;;;;10.59;65.35;100540.94;5014428;28;20046;-75
2022/02/18 04:32:18;;;;;;;0.05;0.05;;;;;;;10.58;65.28;100536.56;5015019;28;20030;-75
2022/02/18 04:34:59;;;;;;;0.10;0.10;;;;;;;10.60;65.57;100517.06;5013911;28;20176;-75
2022/02/18 04:37:30;;;;;;;0.10;0.10;;;;;;;10.57;65.68;100518.94;5013979;28;20470;-75
2022/02/18 04:40:02;;;;;;;0.10;0.10;;;;;;;10.62;65.42;100527.66;5007575;28;20042;-75
2022/02/18 04:42:30;;;;;;;0.10;0.10;;;;;;;10.59;65.42;100520.66;5008797;28;20037;-75
2022/02/18 04:45:03;;;;;;;0.73;0.68;;;;;;;10.60;65.42;100519.72;5014168;28;20060;-75
2022/02/18 04:47:29;;;;;;;0.70;0.70;;;;;;;10.70;65.03;100498.28;5014962;28;20076;-75
2022/02/18 04:49:56;;;;;;;0.00;0.00;;;;;;;10.64;65.31;100494.00;5007416;28;20060;-75
2022/02/18 04:52:23;;;;;;;0.10;0.10;;;;;;;10.65;65.33;100475.44;5009175;28;20042;-76
2022/02/18 04:54:49;;;;;;;0.10;0.10;;;;;;;10.67;65.18;100468.31;5014578;28;20392;-75
2022/02/18 04:57:15;;;;;;;0.00;0.00;;;;;;;10.65;65.20;100459.56;5014620;28;20100;-75
2022/02/18 04:59:41;;;;;;;0.10;0.10;;;;;;;10.60;65.26;100445.53;5013261;28;20030;-76
2022/02/18 05:02:07;;;;;;;0.20;0.20;;;;;;;10.59;65.37;100438.53;5013847;28;20036;-75
2022/02/18 05:04:33;;;;;;;0.17;0.17;;;;;;;10.59;65.35;100430.56;5013026;28;20409;-75
2022/02/18 05:07:00;;;;;;;0.20;0.20;;;;;;;10.61;65.44;100425.22;5013276;28;20105;-75
2022/02/18 05:09:26;;;;;;;0.00;0.00;;;;;;;10.60;65.17;100427.00;5014003;28;20066;-75
2022/02/18 05:11:52;;;;;;;2.80;1.27;;;;;;;10.57;65.25;100419.13;5013589;28;20088;-75
2022/02/18 05:14:18;;;;;;;0.10;0.10;;;;;;;10.57;65.09;100416.50;5013544;28;20092;-75
2022/02/18 05:16:45;;;;;;;0.10;0.10;;;;;;;10.64;64.90;100403.94;5013039;28;20040;-76
2022/02/18 05:19:11;;;;;;;0.20;0.20;;;;;;;10.65;64.79;100398.63;5014120;28;20156;-76
2022/02/18 05:21:38;;;;;;;0.38;0.38;;;;;;;10.66;64.53;100387.09;5013334;28;20216;-75
2022/02/18 05:24:06;;;;;;;0.38;0.38;;;;;;;10.71;64.59;100367.56;5012832;28;20044;-75
2022/02/18 05:26:33;;;;;;;0.10;0.10;;;;;;;10.63;64.47;100363.34;5012939;28;20034;-75
2022/02/18 05:28:59;;;;;;;0.10;0.10;;;;;;;10.58;64.36;100349.34;5013505;28;20481;-76
2022/02/18 05:31:26;;;;;;;0.43;0.43;;;;;;;10.56;64.46;100332.63;5013426;28;20084;-75
2022/02/18 05:33:53;;;;;;;0.10;0.10;;;;;;;10.59;64.24;100332.56;5012577;28;20056;-75
2022/02/18 05:36:19;;;;;;;0.75;0.75;;;;;;;10.56;64.26;100331.78;5013338;28;20026;-75
2022/02/18 05:38:46;;;;;;;0.00;0.00;;;;;;;10.57;64.31;100321.13;5013247;28;20133;-76
2022/02/18 05:41:14;;;;;;;2.72;2.15;;;;;;;10.58;64.46;100298.13;5013584;28;20040;-75
2022/02/18 05:43:41;;;;;;;0.10;0.10;;;;;;;10.51;64.30;100286.84;5012659;28;20040;-75
2022/02/18 05:46:07;;;;;;;2.40;2.25;;;;;;;10.58;64.26;100275.19;5012918;28;20025;-76
2022/02/18 05:48:34;;;;;;;0.08;0.08;;;;;;;10.46;64.23;100271.09;5012899;28;20083;-77
2022/02/18 05:51:01;;;;;;;1.38;0.65;;;;;;;10.54;64.17;100257.63;5013141;28;20113;-77
2022/02/18 05:53:28;;;;;;;0.20;0.20;;;;;;;10.53;64.24;100255.91;5012953;28;20038;-76
2022/02/18 05:55:54;;;;;;;0.00;0.00;;;;;;;10.53;64.19;100245.31;5011850;28;20042;-76
2022/02/18 05:58:20;;;;;;;0.00;0.00;;;;;;;10.54;63.99;100228.47;5013048;28;20041;-77
2022/02/18 06:00:47;;;;;;;0.00;0.00;;;;;;;10.49;63.76;100219.81;5012718;28;20100;-76
2022/02/18 06:03:13;;;;;;;0.55;0.55;;;;;;;10.52;63.82;100214.44;5012913;28;20389;-77
2022/02/18 06:05:40;;;;;;;0.10;0.10;;;;;;;10.49;63.72;100194.22;5009200;28;20034;-77
2022/02/18 06:08:07;;;;;;;0.10;0.10;;;;;;;10.50;63.88;100187.13;5012851;28;20092;-76
2022/02/18 06:10:35;;;;;;;0.10;0.10;;;;;;;10.51;64.05;100165.03;5011660;28;20041;-77
2022/02/18 06:13:01;;;;;;;0.10;0.10;;;;;;;10.57;63.99;100164.81;5012593;28;20053;-76
2022/02/18 06:15:27;;;;;;;0.03;0.03;;;;;;;10.58;64.01;100153.31;5012765;28;20034;-77
2022/02/18 06:17:56;;;;;;;0.15;0.15;;;;;;;10.60;63.98;100138.22;5012832;28;20026;-76
2022/02/18 06:20:22;;;;;;;3.30;3.00;;;;;;;10.55;64.66;100134.88;5012443;28;20037;-76
2022/02/18 06:22:48;;;;;;;0.13;0.13;;;;;;;10.52;65.13;100133.19;5012382;28;20481;-76
2022/02/18 06:25:14;;;;;;;0.10;0.10;;;;;;;10.43;66.25;100114.06;5012594;28;20058;-77
2022/02/18 06:27:40;;;;;;;8.00;0.98;;;;;;;10.49;66.57;100109.44;5012692;28;20030;-76
2022/02/18 06:30:07;;;;;;;0.10;0.10;;;;;;;10.33;67.24;100103.72;5011627;28;20030;-76
2022/02/18 06:32:33;;;;;;;0.20;0.20;;;;;;;10.41;67.55;100090.28;5011310;28;20030;-77
2022/02/18 06:34:59;;;;;;;3.83;0.98;;;;;;;10.40;67.12;100074.44;5001079;28;20057;-77
2022/02/18 06:37:25;;;;;;;2.17;1.65;;;;;;;10.33;67.92;100073.72;5011243;28;20053;-77
2022/02/18 06:39:51;;;;;;;0.10;0.10;;;;;;;10.35;68.38;100067.50;5005306;28;20037;-77
2022/02/18 06:42:18;;;;;;;3.92;2.75;;;;;;;10.23;68.76;100065.22;5010545;28;20030;-77
2022/02/18 06:44:44;;;;;;;0.10;0.10;;;;;;;10.25;68.75;100051.94;5012319;28;20061;-77
2022/02/18 06:47:10;;;;;;;0.10;0.10;;;;;;;10.31;68.82;100042.00;5011206;28;20069;-77
2022/02/18 06:49:37;;;;;;;0.08;0.08;;;;;;;10.32;68.80;100032.28;5011393;28;20205;-77
2022/02/18 06:52:04;;;;;;;0.00;0.00;;;;;;;10.22;69.13;100031.72;5012009;28;20037;-77
2022/02/18 06:54:31;;;;;;;0.10;0.10;;;;;;;10.26;69.02;100022.75;5010246;28;20041;-77
2022/02/18 06:57:01;;;;;;;0.10;0.10;;;;;;;10.26;69.41;100019.25;5011495;28;20030;-76
2022/02/18 06:59:28;;;;;;;0.10;0.10;;;;;;;10.21;69.45;100029.97;5002096;28;20033;-77
2022/02/18 07:01:54;;;;;;;0.00;0.00;;;;;;;10.23;69.65;100021.97;5011319;28;20065;-77
2022/02/18 07:04:22;;;;;;;5.78;2.63;;;;;;;10.19;69.52;100022.09;5015713;28;20026;-76
2022/02/18 07:06:49;;;;;;;0.10;0.10;;;;;;;10.18;69.73;100004.47;5014722;28;20030;-76
2022/02/18 07:09:15;;;;;;;1.05;1.05;;;;;;;10.20;69.78;100007.06;5015778;28;20069;-76
2022/02/18 07:11:41;;;;;;;0.13;0.13;;;;;;;10.23;70.03;99991.09;5016358;28;20060;-76
2022/02/18 07:14:09;;;;;;;0.47;0.47;;;;;;;10.27;69.84;99986.53;5016119;28;20033;-76
2022/02/18 07:16:36;;;;;;;0.10;0.10;;;;;;;10.30;69.91;99975.88;5015815;28;20030;-76
2022/02/18 07:19:03;;;;;;;0.10;0.10;;;;;;;10.34;69.78;99974.84;5015868;28;20485;-76
2022/02/18 07:21:29;;;;;;;0.00;0.00;;;;;;;10.28;70.39;99978.56;5015265;28;20044;-76
2022/02/18 07:23:55;;;;;;;0.30;0.28;;;;;;;10.30;70.21;99954.69;5012127;28;20030;-76
2022/02/18 07:26:21;;;;;;;0.03;0.03;;;;;;;10.32;70.18;99948.41;5010918;28;20034;-76
2022/02/18 07:28:47;;;;;;;0.20;0.20;;;;;;;10.29;70.79;99935.28;5012618;28;20026;-76
2022/02/18 07:31:13;;;;;;;0.10;0.10;;;;;;;10.24;71.35;99929.25;5012894;28;20030;-76
2022/02/18 07:33:39;;;;;;;0.05;0.05;;;;;;;10.42;70.81;99913.69;5010753;28;20358;-76
2022/02/18 07:36:06;;;;;;;0.10;0.10;;;;;;;10.34;71.37;99906.00;5005900;28;20080;-77
2022/02/18 07:38:32;;;;;;;0.05;0.05;;;;;;;10.51;71.00;99890.41;5004199;28;20022;-76
2022/02/18 07:40:58;;;;;;;0.73;0.73;;;;;;;10.41;71.17;99904.91;5009177;28;20374;-76
2022/02/18 07:43:24;;;;;;;2.33;1.75;;;;;;;10.47;71.04;99894.09;5011754;28;20033;-76
2022/02/18 07:45:50;;;;;;;0.00;0.00;;;;;;;10.57;71.04;99886.69;5014193;28;20034;-76
2022/02/18 07:48:16;;;;;;;0.30;0.30;;;;;;;10.66;70.94;99883.72;5009008;28;20386;-75
2022/02/18 07:50:42;;;;;;;0.03;0.03;;;;;;;10.62;71.32;99876.81;5009992;28;20041;-77
2022/02/18 07:53:08;;;;;;;0.00;0.00;;;;;;;10.64;71.19;99864.38;5007428;28;20040;-76
2022/02/18 07:55:34;;;;;;;0.10;0.10;;;;;;;10.60;71.58;99861.88;5006586;28;20030;-76
2022/02/18 07:58:01;;;;;;;0.03;0.03;;;;;;;10.70;71.46;99850.03;5011750;28;20465;-77
2022/02/18 08:00:28;;;;;;;0.77;0.77;;;;;;;10.74;71.50;99848.13;5009405;28;20038;-77
2022/02/18 08:02:54;;;;;;;0.00;0.00;;;;;;;10.89;70.26;99836.97;5008949;28;20133;-80
2022/02/18 08:05:20;;;;;;;0.10;0.10;;;;;;;10.97;69.97;99834.03;5010934;28;20026;-79
2022/02/18 08:07:46;;;;;;;1.88;1.77;;;;;;;10.95;70.73;99820.84;5014891;28;20042;-76
2022/02/18 08:10:13;;;;;;;0.20;0.20;;;;;;;10.97;71.26;99818.13;5013633;28;20484;-76
2022/02/18 08:12:40;;;;;;;0.10;0.10;;;;;;;10.94;71.54;99824.41;5012520;28;20121;-76
2022/02/18 08:15:06;;;;;;;0.10;0.10;;;;;;;10.98;71.50;99810.13;5005288;28;20046;-76
2022/02/18 08:17:35;;;;;;;0.20;0.20;;;;;;;11.07;71.58;99814.19;5011028;28;20057;-76
2022/02/18 08:20:05;;;;;;;0.10;0.10;;;;;;;11.17;71.90;99809.41;5009065;28;20054;-75
2022/02/18 08:22:32;;;;;;;3.95;2.28;;;;;;;11.25;72.29;99809.09;5010904;28;20452;-76
2022/02/18 08:24:58;;;;;;;0.10;0.10;;;;;;;11.30;72.24;99784.16;5009545;28;20371;-76
2022/02/18 08:27:24;;;;;;;0.10;0.10;;;;;;;11.41;72.29;99783.69;5009507;28;20110;-76
2022/02/18 08:29:50;;;;;;;0.20;0.20;;;;;;;11.48;72.28;99766.59;5011687;28;20051;-77
2022/02/18 08:32:16;;;;;;;0.00;0.00;;;;;;;11.63;72.26;99751.00;5009952;28;20030;-76
2022/02/18 08:34:42;;;;;;;0.05;0.05;;;;;;;11.70;72.13;99743.63;5006718;28;20130;-77
2022/02/18 08:37:08;;;;;;;0.00;0.00;;;;;;;11.67;72.02;99741.97;5014163;28;20126;-76
2022/02/18 08:39:35;;;;;;;0.00;0.00;;;;;;;11.77;71.91;99745.09;5003350;28;20100;-77
2022/02/18 08:42:03;;;;;;;0.00;0.00;;;;;;;11.92;71.59;99740.91;5004801;28;20026;-77
2022/02/18 08:44:29;;;;;;;0.20;0.20;;;;;;;11.94;71.32;99736.41;5000733;28;20031;-77
2022/02/18 08:46:56;;;;;;;0.10;0.10;;;;;;;12.10;71.27;99732.19;5006161;28;20042;-76
2022/02/18 08:49:22;;;;;;;0.00;0.00;;;;;;;12.13;71.19;99716.09;5010081;28;20038;-76
2022/02/18 08:51:48;;;;;;;0.08;0.08;;;;;;;12.11;71.36;99723.28;5004011;28;20122;-76
2022/02/18 08:54:15;;;;;;;0.43;0.43;;;;;;;12.14;70.96;99711.69;5012901;28;20481;-76
2022/02/18 08:56:41;;;;;;;0.20;0.20;;;;;;;12.21;70.52;99702.50;5011551;28;20117;-76
2022/02/18 08:59:08;;;;;;;2.08;1.88;;;;;;;12.30;70.16;99691.44;5014116;28;20048;-77
2022/02/18 09:01:34;;;;;;;0.20;0.20;;;;;;;12.48;70.09;99699.50;5007222;28;20416;-77
2022/02/18 09:04:00;;;;;;;0.20;0.20;;;;;;;12.43;70.25;99681.13;5005072;28;20580;-76
2022/02/18 09:06:27;;;;;;;1.80;1.45;;;;;;;12.41;70.35;99679.47;5006263;28;20439;-76
2022/02/18 09:08:53;;;;;;;0.45;0.45;;;;;;;12.38;70.19;99676.97;5006808;28;20079;-77
2022/02/18 09:11:20;;;;;;;0.10;0.10;;;;;;;12.53;69.78;99654.13;4993752;28;20037;-77
2022/02/18 09:13:47;;;;;;;0.10;0.10;;;;;;;12.64;70.03;99654.47;5000530;28;20030;-77
2022/02/18 09:16:13;;;;;;;0.03;0.03;;;;;;;12.68;69.79;99652.53;5013080;28;20485;-77
2022/02/18 09:18:40;;;;;;;0.10;0.10;;;;;;;12.49;70.30;99648.09;5013201;28;20180;-77
2022/02/18 09:21:07;;;;;;;2.08;1.88;;;;;;;12.75;69.79;99646.00;5012931;28;20531;-77
2022/02/18 09:23:34;;;;;;;0.10;0.10;;;;;;;12.60;70.14;99619.22;5012288;28;20030;-77
2022/02/18 09:26:01;;;;;;;0.00;0.00;;;;;;;12.60;69.91;99613.06;5011927;28;20105;-76
2022/02/18 09:28:28;;;;;;;0.10;0.10;;;;;;;12.75;69.91;99598.16;5012639;28;20038;-77
2022/02/18 09:30:56;;;;;;;0.03;0.03;;;;;;;12.73;70.14;99597.38;5013209;28;20396;-77
2022/02/18 09:33:23;;;;;;;0.38;0.38;;;;;;;12.85;69.16;99575.50;5013711;28;20092;-77
2022/02/18 09:35:49;;;;;;;0.00;0.00;;;;;;;12.93;69.52;99577.78;5013983;28;20038;-77
2022/02/18 09:38:17;;;;;;;1.38;1.02;;;;;;;12.75;69.97;99564.47;5012253;28;20499;-77
2022/02/18 09:40:44;;;;;;;2.90;2.50;;;;;;;12.85;69.20;99572.00;5013502;28;20429;-77
2022/02/18 09:43:11;;;;;;;0.10;0.10;;;;;;;12.99;68.92;99560.66;5013499;28;20034;-77
2022/02/18 09:45:37;;;;;;;0.10;0.10;;;;;;;13.12;68.40;99548.44;5013306;28;20029;-77
2022/02/18 09:48:04;;;;;;;0.00;0.00;;;;;;;13.10;68.73;99547.69;5013197;28;20392;-77
2022/02/18 09:50:30;;;;;;;0.30;0.30;;;;;;;13.28;68.57;99545.84;5013072;28;20040;-77
2022/02/18 09:52:57;;;;;;;0.82;0.82;;;;;;;13.17;69.01;99537.56;5013757;28;20034;-77
2022/02/18 09:55:23;;;;;;;0.00;0.00;;;;;;;13.38;67.72;99530.31;5012899;28;20034;-77
2022/02/18 09:57:54;;;;;;;0.52;0.52;;;;;;;13.23;69.02;99522.19;5012661;28;20161;-77
2022/02/18 10:00:21;;;;;;;0.15;0.15;;;;;;;13.23;68.98;99515.97;5012236;28;20117;-78
2022/02/18 10:02:48;;;;;;;0.00;0.00;;;;;;;13.24;69.51;99513.22;5012841;28;20018;-77
2022/02/18 10:05:15;;;;;;;0.00;0.00;;;;;;;13.31;69.31;99507.59;5013507;28;20026;-77
2022/02/18 10:11:08;;;;;;;0.00;0.00;;;;;;;13.42;69.36;99486.63;5110568;27;20125;-77
2022/02/18 10:13:37;;;;;;;0.10;0.10;;;;;;;13.24;70.15;99485.78;5090487;28;20517;-77
2022/02/18 10:16:05;;;;;;;0.10;0.10;;;;;;;13.42;69.32;99484.84;5081148;28;20032;-77
2022/02/18 10:21:32;;;;;;;0.10;0.10;;;;;;;13.42;68.90;99457.34;5066211;27;20418;-76
2022/02/18 10:24:12;;;;;;;0.03;0.03;;;;;;;13.45;68.81;99475.00;5063873;28;20475;-77
2022/02/18 10:29:26;;;;;;;0.00;0.00;;;;;;;13.41;68.63;99467.16;5070813;27;20431;-76
2022/02/18 10:32:14;;;;;;;0.10;0.10;;;;;;;13.67;67.80;99440.94;5066902;28;20024;-77
2022/02/18 10:35:02;;;;;;;0.10;0.10;;;;;;;13.81;67.23;99437.50;5030325;28;20028;-76
2022/02/18 10:37:30;;;;;;;0.05;0.05;;;;;;;13.70;67.31;99434.56;5037613;28;20033;-77
2022/02/18 10:40:16;;;;;;;0.10;0.10;;;;;;;13.94;66.91;99412.84;5053343;28;20476;-77
2022/02/18 10:42:44;;;;;;;0.10;0.10;;;;;;;13.88;66.46;99417.56;5043072;28;20034;-77
2022/02/18 10:45:14;;;;;;;0.10;0.10;;;;;;;13.92;66.67;99391.63;5041962;28;20816;-77
2022/02/18 10:47:42;;;;;;;0.03;0.03;;;;;;;13.82;66.95;99391.28;5048462;28;20041;-78
2022/02/18 10:50:25;;;;;;;0.13;0.13;;;;;;;14.06;66.44;99382.84;5040112;28;20522;-77
2022/02/18 10:53:11;;;;;;;;;;;;;;;14.17;65.71;99375.09;5059131;28;20037;-76
2022/02/18 10:56:04;;;;;;;0.10;0.10;;;;;;;14.01;66.33;99371.59;5051905;28;20363;-76
2022/02/18 10:58:33;;;;;;;0.10;0.10;;;;;;;14.05;66.49;99347.34;5059178;28;20047;-76
2022/02/18 11:06:37;;;;;;;0.10;0.10;;;;;;;14.15;65.94;99333.50;5101159;27;20415;-76
2022/02/18 11:11:49;;;;;;;0.00;0.00;;;;;;;14.11;65.92;99281.38;5113771;27;20407;-76
2022/02/18 11:14:17;;;;;;;0.08;0.08;;;;;;;13.99;66.53;99304.25;5113053;28;20032;-77
2022/02/18 11:16:52;;;;;;;0.10;0.10;;;;;;;14.06;66.28;99297.63;5111740;28;20023;-76
2022/02/18 11:19:20;;;;;;;0.10;0.10;;;;;;;14.29;66.61;99296.22;5114057;28;20483;-76
2022/02/18 11:21:46;;;;;;;0.10;0.10;;;;;;;14.23;67.01;99292.16;5110341;27;20035;-77
2022/02/18 11:24:16;;;;;;;0.10;0.10;;;;;;;14.17;67.00;99265.03;5112791;27;20039;-77
2022/02/18 11:26:44;;;;;;;0.03;0.03;;;;;;;14.11;67.40;99274.25;5113806;27;20027;-77
2022/02/18 11:29:11;;;;;;;0.10;0.10;;;;;;;14.27;66.73;99289.28;5113677;27;20556;-76
2022/02/18 11:31:46;;;;;;;0.10;0.10;;;;;;;14.09;67.87;99281.44;5115568;27;20411;-77
2022/02/18 11:40:00;;;;;;;0.10;0.10;;;;;;;13.94;69.33;99359.59;5087502;27;20485;-77
2022/02/18 11:42:58;;;;;;;0.00;0.00;;;;;;;13.33;67.82;99362.91;5088586;28;20090;-77
2022/02/18 11:45:26;;;;;;;0.57;0.57;;;;;;;12.43;65.47;99350.88;5080502;28;20120;-77
2022/02/18 11:47:53;;;;;;;0.00;0.00;;;;;;;12.47;65.93;99315.25;5080928;28;20567;-76
2022/02/18 11:50:27;;;;;;;0.10;0.10;;;;;;;12.17;66.54;99318.53;5088115;28;20078;-77
2022/02/18 11:52:54;;;;;;;0.28;0.28;;;;;;;12.18;66.14;99296.38;5085727;28;20487;-77
2022/02/18 11:55:37;;;;;;;0.00;0.00;;;;;;;12.16;66.22;99306.19;5083187;28;20033;-77
2022/02/18 12:00:49;;;;;;;0.00;0.00;;;;;;;11.92;64.91;99287.91;5072003;28;20491;-76
2022/02/18 12:09:00;;;;;;;11.73;1.75;;;;;;;11.95;64.36;99244.41;5053982;28;20407;-76